Time;durP1;ratioP1;P1;durP2;ratioP2;P2;SDS_P1;SDS_P2;PMS_P1;PMS_P2;Temp;Humidity;BMP_temperature;BMP_pressure;BME280_temperature;BME280_humidity;BME280_pressure;Samples;Min_cycle;Max_cycle;Signal;HPM_P1;HPM_P2
2022/04/14 00:00:23;;;;;;;31.80;26.73;;;14.70;94.50;;;;;;5056961;28;20177;-80
2022/04/14 00:02:50;;;;;;;28.67;25.43;;;14.60;94.70;;;;;;5061991;28;20198;-80
2022/04/14 00:05:16;;;;;;;30.63;25.83;;;14.50;95.30;;;;;;5067795;28;20156;-80
2022/04/14 00:07:44;;;;;;;30.37;25.07;;;14.60;95.70;;;;;;5070807;28;20243;-81
2022/04/14 00:10:16;;;;;;;31.83;28.43;;;14.70;95.60;;;;;;5057926;28;20698;-82
2022/04/14 00:12:42;;;;;;;34.00;25.93;;;14.70;94.80;;;;;;5054215;28;20263;-82
2022/04/14 00:15:11;;;;;;;31.37;25.27;;;14.80;94.20;;;;;;5053137;28;20177;-81
2022/04/14 00:17:36;;;;;;;34.50;27.03;;;14.80;93.40;;;;;;5054223;28;20200;-81
2022/04/14 00:20:06;;;;;;;31.73;28.40;;;14.80;92.60;;;;;;5052781;28;20230;-81
2022/04/14 00:22:38;;;;;;;30.30;26.83;;;14.70;92.50;;;;;;5052149;28;20549;-81
2022/04/14 00:25:04;;;;;;;28.33;25.23;;;14.70;92.70;;;;;;5053743;28;20627;-81
2022/04/14 00:27:30;;;;;;;29.97;26.80;;;14.70;93.20;;;;;;5053698;28;20304;-80
2022/04/14 00:29:56;;;;;;;30.83;25.57;;;14.70;93.70;;;;;;5054053;28;20172;-81
2022/04/14 00:32:21;;;;;;;30.70;25.50;;;14.50;94.60;;;;;;5054181;28;20183;-82
2022/04/14 00:34:47;;;;;;;27.83;24.83;;;14.40;95.20;;;;;;5053535;28;20625;-82
2022/04/14 00:37:14;;;;;;;28.57;25.57;;;14.30;95.70;;;;;;5053538;28;20175;-80
2022/04/14 00:39:40;;;;;;;31.77;26.50;;;14.40;95.90;;;;;;5053615;28;20172;-80
2022/04/14 00:42:13;;;;;;;29.63;26.47;;;14.40;96.00;;;;;;5053715;28;20527;-81
2022/04/14 00:44:39;;;;;;;29.93;25.60;;;14.40;96.10;;;;;;5051980;28;20243;-81
2022/04/14 00:47:10;;;;;;;29.43;26.17;;;14.50;95.90;;;;;;5052079;28;20318;-82
2022/04/14 00:49:36;;;;;;;28.80;25.40;;;14.60;95.60;;;;;;5053362;28;20176;-82
2022/04/14 00:52:03;;;;;;;29.10;25.90;;;14.60;95.50;;;;;;5053193;28;20194;-81
2022/04/14 00:54:30;;;;;;;30.10;25.27;;;14.60;95.20;;;;;;5053443;28;20240;-82
2022/04/14 00:57:00;;;;;;;30.23;26.50;;;14.60;94.80;;;;;;5052197;28;20251;-82
2022/04/14 00:59:27;;;;;;;30.37;26.03;;;14.60;94.20;;;;;;5053876;28;20184;-82
2022/04/14 01:01:54;;;;;;;32.20;25.97;;;14.50;94.30;;;;;;5071389;28;20184;-81
2022/04/14 01:04:27;;;;;;;30.43;24.90;;;14.40;95.10;;;;;;5056997;28;20248;-81
2022/04/14 01:06:53;;;;;;;28.87;25.53;;;14.50;94.60;;;;;;5053397;28;20165;-80
2022/04/14 01:09:19;;;;;;;29.53;25.20;;;14.50;93.90;;;;;;5053497;28;20177;-81
2022/04/14 01:11:48;;;;;;;26.93;24.03;;;14.30;94.60;;;;;;5053211;28;20248;-82
2022/04/14 01:14:31;;;;;;;30.70;25.93;;;14.20;95.50;;;;;;5053132;28;20177;-82
2022/04/14 01:16:59;;;;;;;27.00;24.13;;;14.10;96.20;;;;;;5053005;28;20203;-81
2022/04/14 01:19:26;;;;;;;28.13;25.13;;;14.20;96.40;;;;;;5053893;28;20258;-83
2022/04/14 01:22:15;;;;;;;28.00;24.97;;;14.10;96.30;;;;;;5053452;28;20180;-81
2022/04/14 01:24:41;;;;;;;27.30;24.20;;;14.10;96.40;;;;;;5062948;28;20273;-81
2022/04/14 01:27:07;;;;;;;25.90;23.10;;;14.00;96.70;;;;;;5063555;28;20238;-81
2022/04/14 01:29:33;;;;;;;28.03;23.87;;;13.90;97.30;;;;;;5056466;28;20177;-80
2022/04/14 01:32:01;;;;;;;26.40;23.20;;;14.00;97.40;;;;;;5056874;28;20183;-82
2022/04/14 01:34:30;;;;;;;29.50;24.93;;;14.00;97.30;;;;;;5055173;28;20230;-80
2022/04/14 01:36:56;;;;;;;25.87;23.07;;;14.20;97.10;;;;;;5057106;28;20170;-82
2022/04/14 01:39:22;;;;;;;26.73;23.83;;;14.20;96.80;;;;;;5057319;28;20165;-81
2022/04/14 01:41:48;;;;;;;28.50;24.23;;;14.30;96.50;;;;;;5057498;28;20176;-80
2022/04/14 01:44:13;;;;;;;27.47;23.40;;;14.20;96.30;;;;;;5057653;28;20172;-79
2022/04/14 01:46:41;;;;;;;28.53;24.20;;;14.10;96.40;;;;;;5056482;28;20535;-80
2022/04/14 01:49:08;;;;;;;32.97;25.53;;;14.10;96.40;;;;;;5059442;28;20188;-83
2022/04/14 01:51:33;;;;;;;29.43;26.00;;;14.30;95.10;;;;;;5072422;28;20163;-80
2022/04/14 01:53:59;;;;;;;32.27;26.27;;;14.30;94.00;;;;;;5073952;28;20213;-79
2022/04/14 01:56:25;;;;;;;30.20;26.40;;;14.20;93.50;;;;;;5071625;28;20332;-81
2022/04/14 01:58:54;;;;;;;32.30;27.07;;;14.10;93.90;;;;;;5059950;28;20178;-81
2022/04/14 02:01:20;;;;;;;35.87;28.67;;;13.80;95.70;;;;;;5056690;28;20804;-80
2022/04/14 02:03:46;;;;;;;32.70;27.97;;;13.80;96.50;;;;;;5057087;28;20233;-81
2022/04/14 02:06:12;;;;;;;34.43;28.63;;;13.90;96.50;;;;;;5056873;28;20266;-81
2022/04/14 02:08:38;;;;;;;33.57;28.60;;;13.90;96.40;;;;;;5057441;28;20221;-81
2022/04/14 02:11:04;;;;;;;31.47;27.03;;;13.90;96.30;;;;;;5059098;28;20569;-81
2022/04/14 02:13:31;;;;;;;35.07;27.63;;;14.10;96.20;;;;;;5068119;28;20200;-80
2022/04/14 02:15:57;;;;;;;30.20;27.00;;;14.00;95.90;;;;;;5072005;28;20179;-81
2022/04/14 02:18:22;;;;;;;31.47;27.43;;;14.00;95.60;;;;;;5070369;28;20246;-80
2022/04/14 02:20:50;;;;;;;29.37;26.40;;;13.90;96.00;;;;;;5073897;28;20204;-81
2022/04/14 02:23:16;;;;;;;31.50;26.67;;;13.80;96.80;;;;;;5074901;28;20200;-81
2022/04/14 02:25:44;;;;;;;30.10;25.90;;;13.80;97.20;;;;;;5059840;28;20639;-81
2022/04/14 02:28:13;;;;;;;28.63;25.50;;;13.70;97.20;;;;;;5063792;28;20697;-80
2022/04/14 02:30:39;;;;;;;28.33;25.43;;;13.50;97.60;;;;;;5075654;28;20203;-80
2022/04/14 02:33:53;;;;;;;27.67;24.67;;;13.50;98.10;;;;;;5057955;28;20168;-81
2022/04/14 02:36:36;;;;;;;27.83;23.70;;;13.50;98.70;;;;;;5053932;28;20612;-81
2022/04/14 02:39:03;;;;;;;27.27;24.17;;;13.60;98.40;;;;;;5053893;28;20271;-81
2022/04/14 02:41:28;;;;;;;29.47;24.67;;;13.40;98.40;;;;;;5053635;28;20264;-81
2022/04/14 02:43:54;;;;;;;29.50;25.57;;;13.40;98.90;;;;;;5053615;28;20655;-80
2022/04/14 02:46:19;;;;;;;27.90;24.67;;;13.50;98.70;;;;;;5053150;28;20171;-80
2022/04/14 02:48:45;;;;;;;27.43;24.63;;;13.60;98.20;;;;;;5057358;28;20218;-79
2022/04/14 02:51:11;;;;;;;30.40;24.70;;;13.70;97.70;;;;;;5055284;28;20511;-80
2022/04/14 02:53:37;;;;;;;30.53;25.53;;;13.70;97.10;;;;;;5055251;28;20182;-81
2022/04/14 02:56:05;;;;;;;31.53;27.47;;;13.70;96.10;;;;;;5053394;28;20619;-81
2022/04/14 02:58:31;;;;;;;29.80;25.97;;;13.70;95.80;;;;;;5053266;28;20173;-82
2022/04/14 03:00:57;;;;;;;30.20;26.93;;;13.60;95.90;;;;;;5055091;28;20174;-81
2022/04/14 03:03:25;;;;;;;29.13;25.93;;;13.50;96.50;;;;;;5058130;28;20177;-81
2022/04/14 03:05:51;;;;;;;28.67;25.67;;;13.40;97.40;;;;;;5057505;28;20188;-81
2022/04/14 03:08:18;;;;;;;27.63;24.63;;;13.50;98.10;;;;;;5055719;28;20255;-80
2022/04/14 03:10:43;;;;;;;28.73;25.60;;;13.40;98.30;;;;;;5055873;28;20294;-81
2022/04/14 03:13:09;;;;;;;28.23;24.87;;;13.30;98.40;;;;;;5054571;28;20700;-79
2022/04/14 03:15:35;;;;;;;29.53;25.97;;;13.30;98.70;;;;;;5052906;28;20177;-82
2022/04/14 03:18:00;;;;;;;29.30;25.43;;;13.40;98.70;;;;;;5055640;28;20531;-81
2022/04/14 03:20:26;;;;;;;27.97;24.30;;;13.50;98.40;;;;;;5063360;28;20183;-80
2022/04/14 03:22:52;;;;;;;27.00;24.03;;;13.50;98.20;;;;;;5061465;28;20177;-81
2022/04/14 03:25:17;;;;;;;28.13;25.23;;;13.70;98.00;;;;;;5064668;28;20637;-81
2022/04/14 03:27:44;;;;;;;29.17;25.37;;;13.70;97.60;;;;;;5061565;28;20206;-79
2022/04/14 03:30:10;;;;;;;28.47;25.50;;;13.70;97.10;;;;;;5073207;28;20165;-78
2022/04/14 03:32:45;;;;;;;29.70;24.90;;;13.40;97.30;;;;;;5067753;28;20185;-81
2022/04/14 03:35:12;;;;;;;27.50;24.07;;;13.30;97.70;;;;;;5072627;28;20176;-80
2022/04/14 03:37:39;;;;;;;26.10;23.17;;;13.10;98.00;;;;;;5072931;28;20191;-81
2022/04/14 03:40:06;;;;;;;26.03;23.23;;;13.00;98.50;;;;;;5073494;28;20180;-79
2022/04/14 03:42:33;;;;;;;30.17;27.03;;;13.00;98.70;;;;;;5065363;28;20176;-80
2022/04/14 03:44:59;;;;;;;26.40;23.30;;;13.10;98.70;;;;;;5071883;28;20234;-80
2022/04/14 03:47:25;;;;;;;27.73;24.10;;;13.20;98.60;;;;;;5069264;28;20208;-80
2022/04/14 03:49:53;;;;;;;27.37;24.43;;;13.30;98.10;;;;;;5055682;28;20692;-80
2022/04/14 03:52:20;;;;;;;24.43;22.03;;;13.10;97.90;;;;;;5054186;28;20165;-80
2022/04/14 03:54:46;;;;;;;24.97;22.27;;;12.90;98.30;;;;;;5053991;28;20561;-81
2022/04/14 03:57:12;;;;;;;26.23;22.13;;;12.80;98.60;;;;;;5064661;28;20192;-79
2022/04/14 03:59:38;;;;;;;25.73;22.87;;;12.80;99.10;;;;;;5066350;28;20644;-79
2022/04/14 04:02:04;;;;;;;26.80;22.90;;;12.80;99.20;;;;;;5055029;28;20174;-81
2022/04/14 04:04:31;;;;;;;25.77;22.60;;;12.90;98.80;;;;;;5052802;28;20591;-81
2022/04/14 04:06:58;;;;;;;26.47;23.63;;;12.80;98.80;;;;;;5053635;28;20177;-80
2022/04/14 04:09:23;;;;;;;24.80;22.10;;;12.70;99.00;;;;;;5054186;28;20572;-80
2022/04/14 04:11:50;;;;;;;24.63;22.13;;;12.60;99.20;;;;;;5053933;28;20278;-81
2022/04/14 04:14:15;;;;;;;24.97;22.37;;;12.60;99.40;;;;;;5052237;28;20263;-80
2022/04/14 04:16:42;;;;;;;26.17;21.80;;;12.50;99.70;;;;;;5053529;28;20201;-81
2022/04/14 04:19:07;;;;;;;25.77;22.17;;;12.50;99.90;;;;;;5052413;28;20183;-81
2022/04/14 04:21:33;;;;;;;27.67;22.53;;;12.50;99.90;;;;;;5054322;28;20231;-81
2022/04/14 04:23:59;;;;;;;25.50;22.90;;;12.50;99.90;;;;;;5053860;28;20167;-80
2022/04/14 04:26:24;;;;;;;28.43;23.63;;;12.40;99.90;;;;;;5053681;28;20166;-82
2022/04/14 04:28:50;;;;;;;28.07;24.63;;;12.50;99.90;;;;;;5052793;28;20740;-80
2022/04/14 04:31:15;;;;;;;30.37;25.27;;;12.60;99.90;;;;;;5056879;28;20169;-81
2022/04/14 04:33:42;;;;;;;46.53;29.23;;;12.60;99.70;;;;;;5069231;28;20174;-81
2022/04/14 04:36:08;;;;;;;41.43;27.90;;;12.60;99.90;;;;;;5074094;28;20179;-80
2022/04/14 04:38:34;;;;;;;43.57;29.07;;;12.50;99.90;;;;;;5062419;28;20197;-80
2022/04/14 04:40:59;;;;;;;49.70;28.53;;;12.50;99.90;;;;;;5055176;28;20161;-82
2022/04/14 04:43:26;;;;;;;57.43;29.50;;;12.30;99.90;;;;;;5052313;28;20169;-81
2022/04/14 04:45:51;;;;;;;60.53;28.67;;;12.20;99.90;;;;;;5056512;28;20650;-82
2022/04/14 04:48:17;;;;;;;39.83;28.07;;;12.20;99.90;;;;;;5054005;28;20224;-80
2022/04/14 04:50:43;;;;;;;57.33;27.30;;;12.20;99.90;;;;;;5053779;28;20197;-80
2022/04/14 04:53:09;;;;;;;53.20;26.63;;;12.10;99.90;;;;;;5053275;28;20167;-80
2022/04/14 04:55:34;;;;;;;51.20;27.63;;;12.10;99.90;;;;;;5053170;28;20283;-81
2022/04/14 04:58:00;;;;;;;118.67;28.87;;;12.00;99.90;;;;;;5056175;28;20219;-80
2022/04/14 05:00:26;;;;;;;59.37;27.53;;;12.00;99.90;;;;;;5057767;28;20169;-80
2022/04/14 05:02:52;;;;;;;79.17;29.03;;;12.10;99.90;;;;;;5057056;28;20618;-79
2022/04/14 05:05:22;;;;;;;73.07;29.67;;;12.00;99.90;;;;;;5057001;28;20174;-81
2022/04/14 05:07:47;;;;;;;217.73;34.20;;;12.10;99.90;;;;;;5056934;28;20251;-81
2022/04/14 05:10:13;;;;;;;56.07;27.73;;;12.20;99.90;;;;;;5056706;28;20183;-81
2022/04/14 05:12:40;;;;;;;70.93;28.63;;;12.30;99.90;;;;;;5056988;28;20273;-81
2022/04/14 05:15:05;;;;;;;93.90;30.20;;;12.20;99.90;;;;;;5056952;28;20166;-80
2022/04/14 05:17:31;;;;;;;75.80;27.97;;;12.20;99.90;;;;;;5056468;28;20188;-81
2022/04/14 05:19:57;;;;;;;60.30;26.40;;;12.20;99.90;;;;;;5057398;28;20226;-80
2022/04/14 05:22:23;;;;;;;58.93;26.10;;;12.30;99.90;;;;;;5058768;28;20173;-80
2022/04/14 05:24:48;;;;;;;72.03;26.33;;;12.30;99.90;;;;;;5075298;28;20252;-80
2022/04/14 05:27:17;;;;;;;43.63;23.50;;;12.00;99.90;;;;;;5064967;28;20284;-81
2022/04/14 05:29:43;;;;;;;35.77;22.93;;;11.80;99.90;;;;;;5062271;28;20159;-80
2022/04/14 05:32:09;;;;;;;40.83;23.47;;;12.00;99.90;;;;;;5062671;28;20236;-79
2022/04/14 05:34:35;;;;;;;38.83;22.30;;;11.70;99.90;;;;;;5062018;28;20213;-80
2022/04/14 05:37:00;;;;;;;39.63;22.63;;;11.80;99.90;;;;;;5080134;28;20166;-79
2022/04/14 05:39:26;;;;;;;52.00;22.60;;;12.10;99.90;;;;;;5069494;28;20165;-80
2022/04/14 05:41:53;;;;;;;56.40;22.97;;;11.80;99.90;;;;;;5056140;28;20196;-81
2022/04/14 05:44:19;;;;;;;54.17;23.17;;;11.80;99.90;;;;;;5055540;28;20216;-81
2022/04/14 05:46:45;;;;;;;52.53;24.13;;;12.00;99.90;;;;;;5056534;28;20174;-81
2022/04/14 05:49:11;;;;;;;53.93;24.60;;;12.00;99.90;;;;;;5056691;28;20695;-81
2022/04/14 05:51:37;;;;;;;80.60;27.50;;;12.00;99.90;;;;;;5071799;28;20246;-79
2022/04/14 05:54:04;;;;;;;55.73;25.80;;;11.90;99.90;;;;;;5071997;28;20181;-81
2022/04/14 05:56:30;;;;;;;53.53;24.73;;;12.00;99.90;;;;;;5056589;28;20188;-81
2022/04/14 05:58:55;;;;;;;61.40;26.13;;;11.90;99.90;;;;;;5056919;28;20172;-80
2022/04/14 06:01:21;;;;;;;54.80;27.07;;;12.00;99.90;;;;;;5056466;28;20177;-81
2022/04/14 06:03:47;;;;;;;39.70;25.57;;;12.10;99.90;;;;;;5056755;28;20171;-80
2022/04/14 06:06:13;;;;;;;38.67;24.93;;;11.90;99.90;;;;;;5054517;28;20184;-80
2022/04/14 06:08:40;;;;;;;42.23;23.80;;;11.90;99.90;;;;;;5056089;28;20208;-80
2022/04/14 06:11:06;;;;;;;65.23;25.10;;;11.90;99.90;;;;;;5057298;28;20180;-80
2022/04/14 06:13:33;;;;;;;60.43;25.17;;;11.80;99.90;;;;;;5055920;28;20193;-79
2022/04/14 06:15:59;;;;;;;43.90;25.43;;;11.90;99.90;;;;;;5055579;28;20515;-80
2022/04/14 06:18:24;;;;;;;36.03;24.83;;;12.00;99.90;;;;;;5055957;28;20189;-80
2022/04/14 06:20:54;;;;;;;49.53;25.77;;;11.90;99.90;;;;;;5056225;28;20256;-79
2022/04/14 06:23:20;;;;;;;51.77;25.43;;;11.90;99.90;;;;;;5055288;28;20163;-80
2022/04/14 06:25:49;;;;;;;41.90;24.83;;;12.00;99.90;;;;;;5056791;28;20537;-80
2022/04/14 06:28:17;;;;;;;32.97;24.90;;;12.20;99.90;;;;;;5055196;28;20213;-80
2022/04/14 06:30:42;;;;;;;30.47;24.33;;;12.40;99.90;;;;;;5055246;28;20179;-80
2022/04/14 06:33:08;;;;;;;30.43;24.37;;;12.20;99.90;;;;;;5056498;28;20209;-80
2022/04/14 06:35:34;;;;;;;35.07;23.43;;;12.10;99.90;;;;;;5056137;28;20255;-82
2022/04/14 06:38:00;;;;;;;37.43;28.23;;;12.10;99.90;;;;;;5058701;28;20656;-82
2022/04/14 06:40:26;;;;;;;27.63;23.43;;;12.00;99.90;;;;;;5058314;28;20198;-81
2022/04/14 06:42:52;;;;;;;24.13;21.57;;;12.10;99.90;;;;;;5059572;28;20488;-83
2022/04/14 06:45:18;;;;;;;25.50;22.37;;;12.20;99.90;;;;;;5059050;28;20178;-82
2022/04/14 06:47:43;;;;;;;30.70;21.60;;;12.20;99.90;;;;;;5062608;28;20225;-80
2022/04/14 06:50:09;;;;;;;25.30;21.90;;;12.40;99.90;;;;;;5068725;28;20170;-79
2022/04/14 06:52:38;;;;;;;26.77;22.23;;;12.40;99.90;;;;;;5073913;28;20189;-81
2022/04/14 06:55:05;;;;;;;30.10;23.70;;;12.50;99.90;;;;;;5069032;28;20185;-82
2022/04/14 06:57:31;;;;;;;33.30;22.90;;;12.50;99.90;;;;;;5069097;28;20194;-82
2022/04/14 06:59:57;;;;;;;25.60;22.90;;;12.40;99.90;;;;;;5069600;28;20239;-81
2022/04/14 07:02:23;;;;;;;27.13;22.77;;;12.30;99.90;;;;;;5064448;28;20739;-80
2022/04/14 07:04:49;;;;;;;27.90;23.70;;;12.30;99.90;;;;;;5061101;28;20169;-80
2022/04/14 07:07:15;;;;;;;25.43;22.13;;;12.50;99.90;;;;;;5066340;28;20487;-81
2022/04/14 07:09:42;;;;;;;25.23;22.53;;;12.60;99.90;;;;;;5073721;28;20189;-81
2022/04/14 07:12:08;;;;;;;25.03;22.13;;;12.70;99.90;;;;;;5073671;28;20199;-82
2022/04/14 07:14:40;;;;;;;25.87;22.93;;;12.80;99.90;;;;;;5063984;28;20224;-81
2022/04/14 07:17:06;;;;;;;26.73;22.73;;;12.80;99.90;;;;;;5062858;28;20646;-81
2022/04/14 07:19:31;;;;;;;28.03;22.77;;;12.80;99.90;;;;;;5068571;28;20170;-82
2022/04/14 07:21:58;;;;;;;24.93;22.23;;;12.80;99.90;;;;;;5070544;28;20175;-82
2022/04/14 07:24:26;;;;;;;28.97;22.93;;;12.90;99.90;;;;;;5068346;28;20172;-81
2022/04/14 07:26:53;;;;;;;24.47;21.67;;;12.90;99.90;;;;;;5055113;28;20169;-81
2022/04/14 07:29:22;;;;;;;26.17;22.30;;;13.10;99.90;;;;;;5056934;28;20185;-81
2022/04/14 07:31:49;;;;;;;29.53;23.77;;;13.20;99.90;;;;;;5057580;28;20190;-81
2022/04/14 07:34:21;;;;;;;25.63;23.03;;;13.20;99.90;;;;;;5055913;28;20610;-81
2022/04/14 07:36:46;;;;;;;29.30;23.83;;;13.30;99.90;;;;;;5059236;28;20281;-81
2022/04/14 07:39:18;;;;;;;28.60;22.83;;;13.40;99.90;;;;;;5060969;28;20189;-80
2022/04/14 07:41:47;;;;;;;25.90;23.13;;;13.60;99.90;;;;;;5059781;28;20244;-80
2022/04/14 07:44:15;;;;;;;26.17;23.47;;;13.60;99.90;;;;;;5059009;28;20187;-82
2022/04/14 07:46:41;;;;;;;25.77;22.80;;;13.60;99.90;;;;;;5061429;28;20189;-80
2022/04/14 07:49:08;;;;;;;24.13;20.83;;;13.90;99.80;;;;;;5063665;28;20207;-82
2022/04/14 07:51:34;;;;;;;22.73;20.43;;;13.80;99.20;;;;;;5054382;28;20268;-82
2022/04/14 07:54:01;;;;;;;24.53;22.13;;;13.90;99.10;;;;;;5056794;28;20175;-81
2022/04/14 07:56:27;;;;;;;23.37;20.97;;;14.00;98.60;;;;;;5064294;28;20181;-82
2022/04/14 07:58:53;;;;;;;23.23;20.87;;;14.00;98.20;;;;;;5058176;28;20179;-82
2022/04/14 08:01:18;;;;;;;22.27;19.87;;;14.10;98.00;;;;;;5059579;28;20261;-82
2022/04/14 08:03:46;;;;;;;25.23;20.60;;;14.20;97.00;;;;;;5057232;28;20168;-81
2022/04/14 08:06:14;;;;;;;23.30;20.20;;;14.40;96.50;;;;;;5058847;28;20176;-79
2022/04/14 08:08:41;;;;;;;24.73;20.20;;;14.60;96.30;;;;;;5040839;28;20223;-80
2022/04/14 08:11:10;;;;;;;22.50;20.20;;;14.80;95.00;;;;;;5065703;28;20184;-80
2022/04/14 08:13:40;;;;;;;27.00;20.07;;;15.00;94.10;;;;;;5053875;28;20216;-80
2022/04/14 08:16:13;;;;;;;22.13;19.83;;;15.00;92.40;;;;;;5065351;28;20152;-80
2022/04/14 08:18:40;;;;;;;20.87;18.57;;;14.90;92.40;;;;;;5060353;28;20219;-81
2022/04/14 08:21:20;;;;;;;24.07;18.77;;;15.00;92.70;;;;;;5060932;28;20627;-83
2022/04/14 08:23:46;;;;;;;22.30;19.67;;;15.00;92.20;;;;;;5057078;28;20625;-80
2022/04/14 08:26:17;;;;;;;23.10;20.00;;;15.20;92.10;;;;;;5056565;28;20515;-82
2022/04/14 08:28:47;;;;;;;22.97;19.30;;;15.30;91.10;;;;;;5056422;28;20311;-82
2022/04/14 08:31:16;;;;;;;23.67;19.07;;;15.40;90.00;;;;;;5058911;28;20223;-81
2022/04/14 08:33:45;;;;;;;22.30;19.07;;;15.60;87.50;;;;;;5065958;28;20230;-80
2022/04/14 08:36:20;;;;;;;20.80;17.67;;;15.70;84.50;;;;;;5067536;28;20153;-82
2022/04/14 08:38:48;;;;;;;22.47;17.67;;;15.70;83.20;;;;;;5069309;28;20192;-83
2022/04/14 08:41:21;;;;;;;21.37;17.90;;;15.80;82.20;;;;;;5073786;28;20158;-83
2022/04/14 08:43:49;;;;;;;21.63;18.10;;;15.80;82.20;;;;;;5070596;28;20165;-81
2022/04/14 08:46:17;;;;;;;20.13;15.57;;;16.10;78.50;;;;;;5071943;28;20161;-80
2022/04/14 08:48:47;;;;;;;20.83;14.63;;;16.20;74.50;;;;;;5077457;28;20208;-81
2022/04/14 08:51:14;;;;;;;18.53;15.00;;;16.20;73.00;;;;;;5079950;28;20178;-80
2022/04/14 08:53:41;;;;;;;16.50;14.80;;;16.30;73.90;;;;;;5080455;28;20169;-81
2022/04/14 08:56:08;;;;;;;18.63;15.07;;;16.40;69.30;;;;;;5081495;28;20177;-81
2022/04/14 08:58:37;;;;;;;15.83;14.13;;;16.40;71.10;;;;;;5078681;28;20165;-80
2022/04/14 09:01:04;;;;;;;18.50;13.33;;;16.30;71.90;;;;;;5078818;28;20161;-82
2022/04/14 09:03:31;;;;;;;16.30;13.37;;;16.50;68.30;;;;;;5077804;28;20181;-83
2022/04/14 09:05:57;;;;;;;15.73;11.90;;;16.30;68.50;;;;;;5062914;28;20193;-81
2022/04/14 09:08:25;;;;;;;13.07;11.33;;;16.30;68.70;;;;;;5078787;28;20209;-82
2022/04/14 09:10:53;;;;;;;15.47;10.77;;;16.50;61.50;;;;;;5077033;28;20170;-82
2022/04/14 09:13:25;;;;;;;12.47;10.97;;;16.60;56.90;;;;;;5075072;28;20215;-83
2022/04/14 09:15:57;;;;;;;15.37;10.30;;;16.60;60.00;;;;;;5064368;28;20173;-82
2022/04/14 09:18:22;;;;;;;15.43;10.43;;;16.60;59.70;;;;;;5063352;28;20165;-83
2022/04/14 09:21:01;;;;;;;14.33;9.30;;;16.70;57.60;;;;;;5064028;28;20244;-82
2022/04/14 09:23:27;;;;;;;10.70;9.10;;;16.90;54.40;;;;;;5062037;28;20173;-81
2022/04/14 09:26:11;;;;;;;11.43;9.20;;;16.90;50.20;;;;;;5058736;28;20184;-81
2022/04/14 09:28:38;;;;;;;12.23;9.73;;;16.90;51.90;;;;;;5057595;28;20212;-79
2022/04/14 09:31:11;;;;;;;10.60;9.03;;;17.20;49.80;;;;;;5060924;28;20186;-80
2022/04/14 09:33:48;;;;;;;11.10;8.23;;;17.30;49.20;;;;;;5062347;28;20547;-80
2022/04/14 09:36:20;;;;;;;10.00;8.37;;;17.30;27.30;;;;;;5058251;28;20172;-81
2022/04/14 09:39:07;;;;;;;11.67;7.67;;;17.50;23.30;;;;;;5041629;28;20175;-80
2022/04/14 09:41:33;;;;;;;9.23;6.00;;;17.70;10.20;;;;;;5057844;28;20179;-80
2022/04/14 09:44:01;;;;;;;7.83;5.70;;;17.80;1.00;;;;;;5056235;28;20223;-81
2022/04/14 09:46:28;;;;;;;7.53;5.60;;;17.70;1.00;;;;;;5056906;28;20179;-80
2022/04/14 09:49:09;;;;;;;8.93;5.73;;;17.90;1.00;;;;;;5058236;28;20203;-82
2022/04/14 09:51:46;;;;;;;11.10;6.20;;;18.00;1.00;;;;;;5057485;28;20172;-82
2022/04/14 09:54:17;;;;;;;7.27;6.03;;;17.90;1.00;;;;;;5059646;28;20182;-82
2022/04/14 09:56:48;;;;;;;6.73;5.77;;;18.10;1.00;;;;;;5059353;28;20177;-82
2022/04/14 09:59:16;;;;;;;5.73;4.07;;;18.10;1.00;;;;;;5059405;28;20184;-82
2022/04/14 10:01:43;;;;;;;6.03;4.10;;;18.00;1.00;;;;;;5056881;28;20547;-83
2022/04/14 10:04:34;;;;;;;5.00;3.60;;;18.10;1.00;;;;;;5060023;28;20200;-81
2022/04/14 10:07:08;;;;;;;7.27;5.60;;;18.00;1.00;;;;;;5058326;28;20169;-81
2022/04/14 10:09:39;;;;;;;4.57;3.40;;;18.10;1.00;;;;;;5059268;28;20283;-82
2022/04/14 10:12:26;;;;;;;6.10;3.70;;;18.10;1.00;;;;;;5058450;28;20193;-81
2022/04/14 10:15:01;;;;;;;5.47;3.80;;;18.20;1.00;;;;;;5060646;28;20219;-82
2022/04/14 10:17:32;;;;;;;3.53;2.73;;;18.30;1.00;;;;;;5058737;28;20165;-82
2022/04/14 10:19:59;;;;;;;4.57;3.10;;;18.40;1.00;;;;;;5057167;28;20318;-82
2022/04/14 10:22:26;;;;;;;5.57;3.20;;;18.60;1.00;;;;;;5056188;28;20644;-82
2022/04/14 10:24:56;;;;;;;5.20;2.97;;;18.60;1.00;;;;;;5058789;28;20166;-83
2022/04/14 10:27:25;;;;;;;7.87;3.33;;;18.70;1.00;;;;;;5058583;28;20260;-82
2022/04/14 10:29:51;;;;;;;5.13;3.13;;;18.80;1.00;;;;;;5057625;28;20207;-81
2022/04/14 10:32:18;;;;;;;8.37;4.07;;;18.70;1.00;;;;;;5057895;28;20171;-84
2022/04/14 10:34:48;;;;;;;6.50;5.10;;;18.80;1.00;;;;;;5060946;28;20177;-83
2022/04/14 10:37:23;;;;;;;5.63;4.30;;;18.80;1.00;;;;;;5060130;28;20173;-81
2022/04/14 10:39:49;;;;;;;5.27;3.53;;;18.80;1.00;;;;;;5059141;28;20179;-82
2022/04/14 10:42:23;;;;;;;6.50;4.20;;;18.90;1.00;;;;;;5059096;28;20169;-82
2022/04/14 10:44:53;;;;;;;8.27;5.00;;;18.70;1.00;;;;;;5057816;28;20540;-80
2022/04/14 10:47:51;;;;;;;6.70;3.33;;;18.70;1.00;;;;;;5059532;28;20172;-83
2022/04/14 10:50:34;;;;;;;9.17;3.63;;;18.80;1.00;;;;;;5057203;28;20278;-81
2022/04/14 10:53:17;;;;;;;4.90;3.80;;;18.90;1.00;;;;;;5059985;28;20172;-81
2022/04/14 10:55:46;;;;;;;5.00;3.90;;;18.70;1.00;;;;;;5056660;28;20777;-81
2022/04/14 10:58:26;;;;;;;5.70;3.90;;;18.40;1.00;;;;;;5057566;28;20646;-82
2022/04/14 11:00:54;;;;;;;6.30;4.67;;;18.40;1.00;;;;;;5057234;28;20169;-82
2022/04/14 11:03:27;;;;;;;6.67;4.40;;;18.50;1.00;;;;;;5058484;28;20169;-82
2022/04/14 11:05:53;;;;;;;7.43;5.33;;;18.50;1.00;;;;;;5071716;28;20182;-82
2022/04/14 11:08:31;;;;;;;6.33;5.00;;;18.60;1.00;;;;;;5076555;28;20191;-81
2022/04/14 11:11:16;;;;;;;7.17;4.10;;;18.80;1.00;;;;;;5062340;28;20200;-81
2022/04/14 11:13:51;;;;;;;7.27;5.07;;;19.10;1.00;;;;;;5062807;28;20292;-80
2022/04/14 11:16:42;;;;;;;7.10;5.13;;;19.30;1.00;;;;;;5063778;28;20169;-80
2022/04/14 11:19:26;;;;;;;6.90;5.00;;;19.30;1.00;;;;;;5060067;28;20561;-80
2022/04/14 11:21:58;;;;;;;6.00;4.77;;;19.20;1.00;;;;;;5059439;28;20178;-81
2022/04/14 11:24:40;;;;;;;5.83;4.27;;;19.20;1.00;;;;;;5059472;28;20236;-81
2022/04/14 11:27:14;;;;;;;6.77;4.70;;;19.10;1.00;;;;;;5065270;28;20529;-81
2022/04/14 11:29:42;;;;;;;6.53;4.33;;;19.20;1.00;;;;;;5066841;28;20190;-82
2022/04/14 11:32:09;;;;;;;6.20;4.63;;;19.30;1.00;;;;;;5061941;28;20193;-82
2022/04/14 11:34:36;;;;;;;5.87;4.63;;;19.50;1.00;;;;;;5059253;28;20269;-80
2022/04/14 11:37:03;;;;;;;7.40;4.90;;;19.70;1.00;;;;;;5065256;28;20218;-80
2022/04/14 11:39:30;;;;;;;5.50;4.03;;;19.90;1.00;;;;;;5051125;28;20200;-80
2022/04/14 11:42:06;;;;;;;6.90;4.13;;;20.10;1.00;;;;;;5070511;28;20184;-81
2022/04/14 11:44:32;;;;;;;4.90;4.07;;;20.10;99.90;;;;;;5076788;28;20162;-82
2022/04/14 11:47:08;;;;;;;5.93;4.40;;;20.00;1.00;;;;;;5074654;28;20653;-82
2022/04/14 11:49:35;;;;;;;6.87;4.80;;;19.90;1.00;;;;;;5071336;28;20243;-82
2022/04/14 11:52:04;;;;;;;6.93;5.03;;;19.70;1.00;;;;;;5061284;28;20596;-81
2022/04/14 11:54:30;;;;;;;7.83;4.97;;;19.20;1.00;;;;;;5064416;28;20166;-82
2022/04/14 11:57:07;;;;;;;7.77;4.63;;;19.20;1.00;;;;;;5061223;28;20209;-80
2022/04/14 11:59:42;;;;;;;8.17;5.00;;;19.40;1.00;;;;;;5058954;28;20186;-82
2022/04/14 12:02:09;;;;;;;6.73;4.97;;;19.50;1.00;;;;;;5056074;28;20201;-82
2022/04/14 12:04:48;;;;;;;8.30;5.10;;;19.60;1.00;;;;;;5062162;28;20246;-80
2022/04/14 12:07:15;;;;;;;7.40;5.17;;;19.50;1.00;;;;;;5059680;28;20177;-83
2022/04/14 12:09:44;;;;;;;6.60;5.47;;;19.50;1.00;;;;;;5056299;28;20644;-82
2022/04/14 12:12:15;;;;;;;7.47;4.47;;;19.30;1.00;;;;;;5058437;28;20266;-83
2022/04/14 12:14:47;;;;;;;6.93;4.20;;;19.20;1.00;;;;;;5060873;28;20519;-82
2022/04/14 12:17:17;;;;;;;10.30;4.37;;;19.30;1.00;;;;;;5059832;28;20169;-82
2022/04/14 12:19:47;;;;;;;7.43;4.40;;;19.50;1.00;;;;;;5049437;28;20189;-81
2022/04/14 12:22:14;;;;;;;7.53;4.53;;;19.70;1.00;;;;;;5060610;28;20177;-83
2022/04/14 12:24:47;;;;;;;8.37;4.20;;;19.80;1.00;;;;;;5054443;28;20174;-81
2022/04/14 12:27:23;;;;;;;8.80;4.70;;;19.80;1.00;;;;;;5055451;28;20226;-81
2022/04/14 12:29:55;;;;;;;6.13;3.97;;;19.70;1.00;;;;;;5056533;28;20216;-81
2022/04/14 12:32:28;;;;;;;6.87;4.43;;;19.90;1.00;;;;;;5067508;28;20185;-82
2022/04/14 12:34:55;;;;;;;8.43;4.80;;;19.90;1.00;;;;;;5073182;28;20190;-82
2022/04/14 12:37:32;;;;;;;9.10;4.93;;;20.00;1.00;;;;;;5062665;28;20167;-82
2022/04/14 12:40:13;;;;;;;7.27;5.40;;;20.00;1.00;;;;;;5058075;28;20318;-82